Time;durP1;ratioP1;P1;durP2;ratioP2;P2;SDS_P1;SDS_P2;PMS_P1;PMS_P2;Temp;Humidity;BMP_temperature;BMP_pressure;BME280_temperature;BME280_humidity;BME280_pressure;Samples;Min_cycle;Max_cycle;Signal;HPM_P1;HPM_P2
2021/01/05 00:01:12;;;;;;;8.60;6.10;;;;;;;;;;5047353;28;20393;-78
2021/01/05 00:03:42;;;;;;;7.95;5.50;;;;;;;;;;5025099;28;20459;-79
2021/01/05 00:06:08;;;;;;;7.65;5.80;;;;;;;;;;5025838;28;21123;-78
2021/01/05 00:08:34;;;;;;;8.15;5.28;;;;;;;;;;5039527;28;20876;-78
2021/01/05 00:11:00;;;;;;;8.13;5.90;;;;;;;;;;5030971;28;20459;-78
2021/01/05 00:13:26;;;;;;;7.50;5.82;;;;;;;;;;5029933;28;20793;-79
2021/01/05 00:15:53;;;;;;;8.37;5.90;;;;;;;;;;5029970;28;20456;-78
2021/01/05 00:18:19;;;;;;;8.85;6.50;;;;;;;;;;5047338;28;20914;-79
2021/01/05 00:20:45;;;;;;;7.97;6.17;;;;;;;;;;5025367;28;20506;-79
2021/01/05 00:23:11;;;;;;;7.10;5.43;;;;;;;;;;5027837;28;20405;-79
2021/01/05 00:25:37;;;;;;;8.65;5.85;;;;;;;;;;5027785;28;20420;-78
2021/01/05 00:28:03;;;;;;;7.85;5.85;;;;;;;;;;5030044;28;20409;-79
2021/01/05 00:30:29;;;;;;;7.78;5.70;;;;;;;;;;5044595;28;20409;-78
2021/01/05 00:32:55;;;;;;;7.80;5.65;;;;;;;;;;5044756;28;20945;-78
2021/01/05 00:35:24;;;;;;;7.80;6.05;;;;;;;;;;5042663;28;20458;-79
2021/01/05 00:37:51;;;;;;;7.75;5.80;;;;;;;;;;5023801;28;20462;-79
2021/01/05 00:40:18;;;;;;;7.78;6.10;;;;;;;;;;5029290;28;20405;-79
2021/01/05 00:42:44;;;;;;;8.88;6.47;;;;;;;;;;5024543;28;20502;-79
2021/01/05 00:45:10;;;;;;;8.57;6.25;;;;;;;;;;5000750;28;20506;-79
2021/01/05 00:48:01;;;;;;;8.38;6.13;;;;;;;;;;5026778;28;21096;-79
2021/01/05 00:50:28;;;;;;;10.57;6.70;;;;;;;;;;5025453;28;20487;-79
2021/01/05 00:52:55;;;;;;;9.38;6.40;;;;;;;;;;5003989;28;20887;-79
2021/01/05 00:55:21;;;;;;;7.53;5.95;;;;;;;;;;5016016;28;20490;-79
2021/01/05 00:57:47;;;;;;;9.30;6.80;;;;;;;;;;5005406;28;20399;-79
2021/01/05 01:00:18;;;;;;;11.40;6.82;;;;;;;;;;5025409;28;20474;-79
2021/01/05 01:02:44;;;;;;;8.90;6.60;;;;;;;;;;5022560;28;21422;-79
2021/01/05 01:05:10;;;;;;;9.65;7.03;;;;;;;;;;5017592;28;20441;-79
2021/01/05 01:07:36;;;;;;;9.87;7.07;;;;;;;;;;5031502;28;21212;-79
2021/01/05 01:10:03;;;;;;;9.35;7.05;;;;;;;;;;5025334;28;20399;-79
2021/01/05 01:12:30;;;;;;;9.88;7.20;;;;;;;;;;5025587;28;20409;-79
2021/01/05 01:14:56;;;;;;;9.63;7.18;;;;;;;;;;5013655;28;20427;-79
2021/01/05 01:17:23;;;;;;;9.43;7.07;;;;;;;;;;5030270;28;20416;-78
2021/01/05 01:19:51;;;;;;;9.35;7.15;;;;;;;;;;5029157;28;20410;-79
2021/01/05 01:22:20;;;;;;;9.50;7.40;;;;;;;;;;5016090;28;20480;-79
2021/01/05 01:24:47;;;;;;;9.75;7.43;;;;;;;;;;5013018;28;20447;-79
2021/01/05 01:27:13;;;;;;;10.90;7.90;;;;;;;;;;5031137;28;20423;-79
2021/01/05 01:29:39;;;;;;;11.13;7.90;;;;;;;;;;5007102;28;20403;-79
2021/01/05 01:32:11;;;;;;;9.68;7.80;;;;;;;;;;5032301;28;20402;-79
2021/01/05 01:34:37;;;;;;;10.80;8.35;;;;;;;;;;5029106;28;20550;-79
2021/01/05 01:37:06;;;;;;;11.32;8.70;;;;;;;;;;5028523;28;20480;-78
2021/01/05 01:39:32;;;;;;;11.32;8.75;;;;;;;;;;5029471;28;20756;-79
2021/01/05 01:41:59;;;;;;;11.73;8.95;;;;;;;;;;5011394;28;20411;-79
2021/01/05 01:44:29;;;;;;;12.20;9.60;;;;;;;;;;5029698;28;20435;-79
2021/01/05 01:46:57;;;;;;;11.43;9.07;;;;;;;;;;5027940;28;20510;-79
2021/01/05 01:49:23;;;;;;;12.35;9.52;;;;;;;;;;5023932;28;20402;-78
2021/01/05 01:51:50;;;;;;;13.53;9.73;;;;;;;;;;5030757;28;20407;-78
2021/01/05 01:54:19;;;;;;;12.75;9.75;;;;;;;;;;5030712;28;20434;-79
2021/01/05 01:57:09;;;;;;;12.50;8.75;;;;;;;;;;5029332;28;21028;-79
2021/01/05 01:59:38;;;;;;;11.65;8.88;;;;;;;;;;5012115;28;20460;-79
2021/01/05 02:02:06;;;;;;;11.88;8.70;;;;;;;;;;5024929;28;20403;-78
2021/01/05 02:04:35;;;;;;;12.25;9.10;;;;;;;;;;5025003;28;20421;-79
2021/01/05 02:07:23;;;;;;;12.70;9.30;;;;;;;;;;5027774;28;20410;-79
2021/01/05 02:09:49;;;;;;;11.50;8.50;;;;;;;;;;5031050;28;20476;-79
2021/01/05 02:12:24;;;;;;;11.68;8.63;;;;;;;;;;5010889;28;20447;-79
2021/01/05 02:14:59;;;;;;;12.18;8.60;;;;;;;;;;5028410;28;20876;-79
2021/01/05 02:17:43;;;;;;;12.25;9.27;;;;;;;;;;5029881;28;20498;-78
2021/01/05 02:20:16;;;;;;;13.90;9.20;;;;;;;;;;5029953;28;20448;-79
2021/01/05 02:22:42;;;;;;;10.63;8.07;;;;;;;;;;5021947;28;20781;-79
2021/01/05 02:25:11;;;;;;;10.57;8.00;;;;;;;;;;5012375;28;20411;-79
2021/01/05 02:27:45;;;;;;;11.90;8.77;;;;;;;;;;5006434;28;20460;-79
2021/01/05 02:30:13;;;;;;;10.52;8.20;;;;;;;;;;5013736;28;20474;-79
2021/01/05 02:32:39;;;;;;;11.90;8.65;;;;;;;;;;5026743;28;20445;-79
2021/01/05 02:35:20;;;;;;;11.10;8.55;;;;;;;;;;5014059;28;20410;-79
2021/01/05 02:38:05;;;;;;;10.90;8.32;;;;;;;;;;5022382;28;20480;-79
2021/01/05 02:40:34;;;;;;;9.98;7.90;;;;;;;;;;5011955;28;20415;-79
2021/01/05 02:43:19;;;;;;;9.70;7.95;;;;;;;;;;5013531;28;20590;-79
2021/01/05 02:46:05;;;;;;;10.35;8.32;;;;;;;;;;5025009;28;20518;-78
2021/01/05 02:48:51;;;;;;;10.52;8.07;;;;;;;;;;5002944;28;20487;-79
2021/01/05 02:51:36;;;;;;;9.85;7.60;;;;;;;;;;5026296;28;20872;-79
2021/01/05 02:54:20;;;;;;;10.60;7.97;;;;;;;;;;5027274;28;21091;-79
2021/01/05 02:57:02;;;;;;;11.27;8.30;;;;;;;;;;5027233;28;20540;-79
2021/01/05 02:59:58;;;;;;;11.30;8.52;;;;;;;;;;5026349;28;20462;-79
2021/01/05 03:02:24;;;;;;;11.33;8.50;;;;;;;;;;5027051;28;20451;-79
2021/01/05 03:04:50;;;;;;;10.43;7.82;;;;;;;;;;5010250;28;20408;-79
2021/01/05 03:07:19;;;;;;;10.43;8.10;;;;;;;;;;5014091;28;20403;-79
2021/01/05 03:10:03;;;;;;;11.18;8.35;;;;;;;;;;5027332;28;20739;-79
2021/01/05 03:12:32;;;;;;;10.75;8.38;;;;;;;;;;5028380;28;20490;-79
2021/01/05 03:15:16;;;;;;;10.35;8.02;;;;;;;;;;5011543;28;20402;-78
2021/01/05 03:17:49;;;;;;;10.38;8.48;;;;;;;;;;5011392;28;20436;-79
2021/01/05 03:20:30;;;;;;;11.07;8.17;;;;;;;;;;5009860;28;20440;-79
2021/01/05 03:22:58;;;;;;;9.68;7.72;;;;;;;;;;5011194;28;20411;-79
2021/01/05 03:25:25;;;;;;;11.40;8.32;;;;;;;;;;5026882;28;20442;-79
2021/01/05 03:27:58;;;;;;;11.07;8.18;;;;;;;;;;5026734;28;21214;-79
2021/01/05 03:30:32;;;;;;;10.77;8.30;;;;;;;;;;5010212;28;20407;-79
2021/01/05 03:32:58;;;;;;;11.25;8.73;;;;;;;;;;5012092;28;20403;-79
2021/01/05 03:35:27;;;;;;;10.90;8.38;;;;;;;;;;5025020;28;20407;-79
2021/01/05 03:37:53;;;;;;;10.68;8.35;;;;;;;;;;5010162;28;20425;-79
2021/01/05 03:40:25;;;;;;;10.43;7.97;;;;;;;;;;5024961;28;20506;-79
2021/01/05 03:42:51;;;;;;;10.57;8.18;;;;;;;;;;5026286;28;20399;-79
2021/01/05 03:45:19;;;;;;;10.10;7.65;;;;;;;;;;5026100;28;20978;-79
2021/01/05 03:47:45;;;;;;;10.48;8.18;;;;;;;;;;5007002;28;20927;-79
2021/01/05 03:50:11;;;;;;;11.68;8.35;;;;;;;;;;5022251;28;20435;-79
2021/01/05 03:52:38;;;;;;;10.93;8.00;;;;;;;;;;5028311;28;21100;-78
2021/01/05 03:55:05;;;;;;;10.80;8.40;;;;;;;;;;5023437;28;20464;-79
2021/01/05 03:57:31;;;;;;;11.20;8.40;;;;;;;;;;5023658;28;20419;-79
2021/01/05 03:59:56;;;;;;;10.57;8.38;;;;;;;;;;5029369;28;20403;-79
2021/01/05 04:02:22;;;;;;;11.63;8.50;;;;;;;;;;5007044;28;20411;-79
2021/01/05 04:04:48;;;;;;;11.70;8.70;;;;;;;;;;5026270;28;20454;-79
2021/01/05 04:07:14;;;;;;;11.95;9.23;;;;;;;;;;5016483;28;20499;-79
2021/01/05 04:09:40;;;;;;;12.10;8.63;;;;;;;;;;5028447;28;20399;-79
2021/01/05 04:12:06;;;;;;;11.68;8.55;;;;;;;;;;5021923;28;20566;-78
2021/01/05 04:14:51;;;;;;;12.60;8.95;;;;;;;;;;5026310;28;20400;-79
2021/01/05 04:17:17;;;;;;;12.88;9.13;;;;;;;;;;5027734;28;20898;-78
2021/01/05 04:19:43;;;;;;;13.20;9.20;;;;;;;;;;5025793;28;20425;-79
2021/01/05 04:22:09;;;;;;;12.10;8.73;;;;;;;;;;5023929;28;20410;-79
2021/01/05 04:24:35;;;;;;;12.63;9.45;;;;;;;;;;5028218;28;20418;-78
2021/01/05 04:27:01;;;;;;;12.25;9.25;;;;;;;;;;5007977;28;20435;-79
2021/01/05 04:29:27;;;;;;;12.73;9.25;;;;;;;;;;5022122;28;20410;-78
2021/01/05 04:31:53;;;;;;;12.80;8.93;;;;;;;;;;5027513;28;20395;-78
2021/01/05 04:34:19;;;;;;;13.13;10.10;;;;;;;;;;5027338;28;20399;-79
2021/01/05 04:36:45;;;;;;;13.25;9.85;;;;;;;;;;5022529;28;20426;-78
2021/01/05 04:39:11;;;;;;;15.30;10.40;;;;;;;;;;5009910;28;20414;-79
2021/01/05 04:41:46;;;;;;;13.15;9.80;;;;;;;;;;5025206;28;20414;-78
2021/01/05 04:44:13;;;;;;;13.82;9.15;;;;;;;;;;5012820;28;20410;-79
2021/01/05 04:46:57;;;;;;;16.17;10.93;;;;;;;;;;5027015;28;20407;-78
2021/01/05 04:49:23;;;;;;;15.60;10.68;;;;;;;;;;5023538;28;20407;-79
2021/01/05 04:51:49;;;;;;;14.93;11.05;;;;;;;;;;5001805;28;20401;-79
2021/01/05 04:54:33;;;;;;;15.93;11.38;;;;;;;;;;5008243;28;20400;-79
2021/01/05 04:57:33;;;;;;;15.65;11.10;;;;;;;;;;5023876;28;20474;-78
2021/01/05 05:00:04;;;;;;;15.82;11.23;;;;;;;;;;5010398;28;20449;-79
2021/01/05 05:02:30;;;;;;;15.75;11.48;;;;;;;;;;5008561;28;20453;-79
2021/01/05 05:05:02;;;;;;;15.30;10.65;;;;;;;;;;5025609;28;20399;-79
2021/01/05 05:07:44;;;;;;;16.30;12.07;;;;;;;;;;5026236;28;20480;-78
2021/01/05 05:10:28;;;;;;;16.80;12.27;;;;;;;;;;5021977;28;20450;-79
2021/01/05 05:12:54;;;;;;;16.40;12.05;;;;;;;;;;5020847;28;20474;-79
2021/01/05 05:15:23;;;;;;;15.73;11.10;;;;;;;;;;5007441;28;20406;-78
2021/01/05 05:18:13;;;;;;;17.85;12.27;;;;;;;;;;5023434;28;20735;-79
2021/01/05 05:20:52;;;;;;;17.60;12.20;;;;;;;;;;5011321;28;20476;-79
2021/01/05 05:23:42;;;;;;;16.55;11.98;;;;;;;;;;5024108;28;20527;-79
2021/01/05 05:26:20;;;;;;;16.30;11.85;;;;;;;;;;5023808;28;20464;-79
2021/01/05 05:29:03;;;;;;;18.25;12.75;;;;;;;;;;5020543;28;20446;-78
2021/01/05 05:31:31;;;;;;;18.25;12.45;;;;;;;;;;5028999;28;20462;-78
2021/01/05 05:33:59;;;;;;;17.15;12.18;;;;;;;;;;5024705;28;20445;-78
2021/01/05 05:36:58;;;;;;;17.58;12.60;;;;;;;;;;5008368;28;20455;-79
2021/01/05 05:39:33;;;;;;;20.77;12.88;;;;;;;;;;4996330;28;20419;-79
2021/01/05 05:42:08;;;;;;;17.17;12.18;;;;;;;;;;5025721;28;20406;-79
2021/01/05 05:44:53;;;;;;;18.35;12.30;;;;;;;;;;5026270;28;21147;-79
2021/01/05 05:47:42;;;;;;;20.42;14.18;;;;;;;;;;5008253;28;20973;-79
2021/01/05 05:50:16;;;;;;;20.95;13.52;;;;;;;;;;5001672;28;20456;-79
2021/01/05 05:52:47;;;;;;;19.77;13.65;;;;;;;;;;5010813;28;20435;-79
2021/01/05 05:55:40;;;;;;;19.95;14.77;;;;;;;;;;5031154;28;20440;-79
2021/01/05 05:58:07;;;;;;;19.97;13.60;;;;;;;;;;5022823;28;20460;-79
2021/01/05 06:00:36;;;;;;;19.92;13.88;;;;;;;;;;5004041;28;20451;-78
2021/01/05 06:03:03;;;;;;;20.35;14.25;;;;;;;;;;5013930;28;20407;-79
2021/01/05 06:05:31;;;;;;;19.02;13.85;;;;;;;;;;5008987;28;20407;-78
2021/01/05 06:07:57;;;;;;;20.73;14.38;;;;;;;;;;5011165;28;20458;-78
2021/01/05 06:10:26;;;;;;;19.77;14.80;;;;;;;;;;5029909;28;20477;-78
2021/01/05 06:12:53;;;;;;;19.52;14.15;;;;;;;;;;5032074;28;20533;-78
2021/01/05 06:15:19;;;;;;;19.53;13.40;;;;;;;;;;5026042;28;20448;-78
2021/01/05 06:17:45;;;;;;;20.38;13.98;;;;;;;;;;5023835;28;20410;-79
2021/01/05 06:20:12;;;;;;;17.75;13.90;;;;;;;;;;5023688;28;20415;-78
2021/01/05 06:22:54;;;;;;;17.50;12.80;;;;;;;;;;5024295;28;20418;-78
2021/01/05 06:25:20;;;;;;;17.58;12.80;;;;;;;;;;5008406;28;20470;-79
2021/01/05 06:27:46;;;;;;;17.35;13.13;;;;;;;;;;5011320;28;20418;-78
2021/01/05 06:30:12;;;;;;;18.85;13.05;;;;;;;;;;5008247;28;20494;-79
2021/01/05 06:32:38;;;;;;;18.38;13.00;;;;;;;;;;5009534;28;20406;-78
2021/01/05 06:35:05;;;;;;;17.23;12.98;;;;;;;;;;5008734;28;20403;-78
2021/01/05 06:37:31;;;;;;;17.60;12.93;;;;;;;;;;5025568;28;21094;-78
2021/01/05 06:39:57;;;;;;;16.33;12.40;;;;;;;;;;5012847;28;20419;-78
2021/01/05 06:42:23;;;;;;;17.33;12.63;;;;;;;;;;5023464;28;20399;-78
2021/01/05 06:44:49;;;;;;;18.13;13.38;;;;;;;;;;5010125;28;20414;-78
2021/01/05 06:47:15;;;;;;;18.87;13.63;;;;;;;;;;5023626;28;20410;-78
2021/01/05 06:49:41;;;;;;;19.27;13.68;;;;;;;;;;5011173;28;20395;-78
2021/01/05 06:52:07;;;;;;;16.70;13.07;;;;;;;;;;5029717;28;20411;-79
2021/01/05 06:54:34;;;;;;;17.35;12.95;;;;;;;;;;5023037;28;20407;-78
2021/01/05 06:57:00;;;;;;;18.73;13.70;;;;;;;;;;5008948;28;20418;-78
2021/01/05 06:59:27;;;;;;;17.08;13.40;;;;;;;;;;5019728;28;20423;-78
2021/01/05 07:01:57;;;;;;;19.27;14.07;;;;;;;;;;5019324;28;20411;-78
2021/01/05 07:04:23;;;;;;;17.40;13.27;;;;;;;;;;5013283;28;20468;-78
2021/01/05 07:06:49;;;;;;;17.90;13.05;;;;;;;;;;5018060;28;20409;-79
2021/01/05 07:09:16;;;;;;;18.58;13.32;;;;;;;;;;5005884;28;20736;-78
2021/01/05 07:11:42;;;;;;;18.40;13.13;;;;;;;;;;5008196;28;20399;-77
2021/01/05 07:14:12;;;;;;;18.80;14.18;;;;;;;;;;5027696;28;20411;-77
2021/01/05 07:16:38;;;;;;;19.25;13.50;;;;;;;;;;5026242;28;20411;-78
2021/01/05 07:19:04;;;;;;;19.30;13.47;;;;;;;;;;5010993;28;20472;-78
2021/01/05 07:21:30;;;;;;;19.15;13.82;;;;;;;;;;5013104;28;20407;-78
2021/01/05 07:23:56;;;;;;;19.35;14.15;;;;;;;;;;5012529;28;20441;-78
2021/01/05 07:26:24;;;;;;;19.13;14.07;;;;;;;;;;5013422;28;20395;-78
2021/01/05 07:28:50;;;;;;;17.50;13.02;;;;;;;;;;5016132;28;20477;-78
2021/01/05 07:31:16;;;;;;;17.38;12.63;;;;;;;;;;5010734;28;20398;-78
2021/01/05 07:33:41;;;;;;;17.65;13.10;;;;;;;;;;5013099;28;20432;-78
2021/01/05 07:36:34;;;;;;;18.17;13.43;;;;;;;;;;5030452;28;20394;-78
2021/01/05 07:39:00;;;;;;;18.23;13.05;;;;;;;;;;5026373;28;20445;-78
2021/01/05 07:41:26;;;;;;;19.90;13.88;;;;;;;;;;5018032;28;20391;-78
2021/01/05 07:43:52;;;;;;;18.00;12.97;;;;;;;;;;5011013;28;20859;-78
2021/01/05 07:46:21;;;;;;;18.08;13.25;;;;;;;;;;5030111;28;20406;-77
2021/01/05 07:48:47;;;;;;;18.55;13.05;;;;;;;;;;5021045;28;20411;-78
2021/01/05 07:51:13;;;;;;;18.08;13.30;;;;;;;;;;5012546;28;20908;-78
2021/01/05 07:53:38;;;;;;;17.23;13.15;;;;;;;;;;5012773;28;21071;-78
2021/01/05 07:56:05;;;;;;;18.17;13.95;;;;;;;;;;5029307;28;20422;-78
2021/01/05 07:58:31;;;;;;;17.25;13.02;;;;;;;;;;5012333;28;20395;-78
2021/01/05 08:00:56;;;;;;;17.60;13.38;;;;;;;;;;5016086;28;20466;-78
2021/01/05 08:03:22;;;;;;;17.77;13.23;;;;;;;;;;5025505;28;20391;-77
2021/01/05 08:05:48;;;;;;;18.92;12.85;;;;;;;;;;5022809;28;20398;-78
2021/01/05 08:08:15;;;;;;;20.33;14.38;;;;;;;;;;5012299;28;20410;-78
2021/01/05 08:10:42;;;;;;;17.60;12.93;;;;;;;;;;5030039;28;21005;-78
2021/01/05 08:13:10;;;;;;;18.43;13.60;;;;;;;;;;5029768;28;20383;-78
2021/01/05 08:15:36;;;;;;;20.77;14.00;;;;;;;;;;5018114;28;20755;-78
2021/01/05 08:18:03;;;;;;;18.65;13.85;;;;;;;;;;5030129;28;20391;-78
2021/01/05 08:20:30;;;;;;;18.73;13.68;;;;;;;;;;5030319;28;20394;-78
2021/01/05 08:22:56;;;;;;;19.13;13.32;;;;;;;;;;5029983;28;20475;-78
2021/01/05 08:25:22;;;;;;;19.30;12.77;;;;;;;;;;5011759;28;20930;-78
2021/01/05 08:27:49;;;;;;;20.10;13.70;;;;;;;;;;5025388;28;20743;-78
2021/01/05 08:30:16;;;;;;;18.52;12.48;;;;;;;;;;5028013;28;20402;-78
2021/01/05 08:32:42;;;;;;;19.20;12.40;;;;;;;;;;5012202;28;20412;-78
2021/01/05 08:35:09;;;;;;;16.40;10.82;;;;;;;;;;5014857;28;20465;-77
2021/01/05 08:37:39;;;;;;;16.70;11.32;;;;;;;;;;5011648;28;20502;-78
2021/01/05 08:40:06;;;;;;;16.35;10.88;;;;;;;;;;5011993;28;20403;-77
2021/01/05 08:42:32;;;;;;;15.90;10.77;;;;;;;;;;5029657;28;20732;-78
2021/01/05 08:44:57;;;;;;;17.45;11.10;;;;;;;;;;5029669;28;20421;-78
2021/01/05 08:47:23;;;;;;;17.10;11.57;;;;;;;;;;5011715;28;20412;-78
2021/01/05 08:49:51;;;;;;;15.68;10.63;;;;;;;;;;5012004;28;20922;-78
2021/01/05 08:52:20;;;;;;;15.40;10.93;;;;;;;;;;5011662;28;20965;-77
2021/01/05 08:54:46;;;;;;;16.13;11.23;;;;;;;;;;5029125;28;20478;-78
2021/01/05 08:57:13;;;;;;;15.32;10.52;;;;;;;;;;5011821;28;20831;-78
2021/01/05 08:59:39;;;;;;;15.07;10.68;;;;;;;;;;5009576;28;20391;-78
2021/01/05 09:02:06;;;;;;;16.70;11.23;;;;;;;;;;5008924;28;20434;-78
2021/01/05 09:04:32;;;;;;;14.85;10.80;;;;;;;;;;5029570;28;20712;-78
2021/01/05 09:06:58;;;;;;;15.70;10.88;;;;;;;;;;5013213;28;20461;-78
2021/01/05 09:09:24;;;;;;;14.43;10.05;;;;;;;;;;5003067;28;20396;-78
2021/01/05 09:11:54;;;;;;;16.10;11.02;;;;;;;;;;5011425;28;20403;-77
2021/01/05 09:14:20;;;;;;;16.35;10.48;;;;;;;;;;5022998;28;20438;-78
2021/01/05 09:16:46;;;;;;;15.13;10.55;;;;;;;;;;5011343;28;20395;-78
2021/01/05 09:19:12;;;;;;;15.35;10.88;;;;;;;;;;5029112;28;20453;-78
2021/01/05 09:21:38;;;;;;;16.25;11.05;;;;;;;;;;5029142;28;20395;-78
2021/01/05 09:24:04;;;;;;;14.88;10.73;;;;;;;;;;5011420;28;20391;-78
2021/01/05 09:26:35;;;;;;;15.93;10.90;;;;;;;;;;5012987;28;20407;-78
2021/01/05 09:29:05;;;;;;;15.30;11.10;;;;;;;;;;5014690;28;20448;-76
2021/01/05 09:31:33;;;;;;;16.50;11.27;;;;;;;;;;5030959;28;20389;-78
2021/01/05 09:33:59;;;;;;;13.82;10.05;;;;;;;;;;5014849;28;20414;-78
2021/01/05 09:36:32;;;;;;;14.80;10.60;;;;;;;;;;5014956;28;20399;-78
2021/01/05 09:38:58;;;;;;;14.15;10.55;;;;;;;;;;5029451;28;20415;-78
2021/01/05 09:41:27;;;;;;;14.55;9.95;;;;;;;;;;5033353;28;20464;-78
2021/01/05 09:43:54;;;;;;;17.30;10.43;;;;;;;;;;5013608;28;20408;-78
2021/01/05 09:46:22;;;;;;;15.18;10.73;;;;;;;;;;5016914;28;20402;-77
2021/01/05 09:48:49;;;;;;;15.57;10.40;;;;;;;;;;5036756;28;20440;-78
2021/01/05 09:51:25;;;;;;;14.40;10.52;;;;;;;;;;5024312;28;20931;-77
2021/01/05 09:53:51;;;;;;;14.65;10.63;;;;;;;;;;5032112;28;20418;-77
2021/01/05 09:56:17;;;;;;;15.57;10.77;;;;;;;;;;5031804;28;20536;-78
2021/01/05 09:58:44;;;;;;;14.85;11.00;;;;;;;;;;5014759;28;20925;-77
2021/01/05 10:01:10;;;;;;;15.40;11.00;;;;;;;;;;5029579;28;20423;-77
2021/01/05 10:03:36;;;;;;;15.57;10.90;;;;;;;;;;5031436;28;20487;-78
2021/01/05 10:06:02;;;;;;;16.45;11.73;;;;;;;;;;5014481;28;20974;-78
2021/01/05 10:08:28;;;;;;;15.07;11.18;;;;;;;;;;5032049;28;20398;-78
2021/01/05 10:10:54;;;;;;;15.43;11.00;;;;;;;;;;5014802;28;20987;-78
2021/01/05 10:13:20;;;;;;;15.57;10.75;;;;;;;;;;5014297;28;20391;-77
2021/01/05 10:15:46;;;;;;;14.63;10.25;;;;;;;;;;5014472;28;20391;-77
2021/01/05 10:18:12;;;;;;;15.68;10.43;;;;;;;;;;5014042;28;20400;-78
2021/01/05 10:20:38;;;;;;;14.10;9.98;;;;;;;;;;5031781;28;20410;-77
2021/01/05 10:23:04;;;;;;;13.35;9.65;;;;;;;;;;5014188;28;20731;-78
2021/01/05 10:25:30;;;;;;;11.32;8.30;;;;;;;;;;5031868;28;20395;-77
2021/01/05 10:27:56;;;;;;;11.43;8.10;;;;;;;;;;5013927;28;20493;-78
2021/01/05 10:30:22;;;;;;;11.38;7.60;;;;;;;;;;5011537;28;20394;-78
2021/01/05 10:32:48;;;;;;;11.15;8.27;;;;;;;;;;5013690;28;20403;-77
2021/01/05 10:35:16;;;;;;;12.32;8.10;;;;;;;;;;5013687;28;20387;-78
2021/01/05 10:37:43;;;;;;;10.82;7.93;;;;;;;;;;5000945;28;20427;-77
2021/01/05 10:40:10;;;;;;;11.88;8.30;;;;;;;;;;5027228;28;20510;-77
2021/01/05 10:42:39;;;;;;;12.02;8.15;;;;;;;;;;5017044;28;20425;-77
2021/01/05 10:45:06;;;;;;;15.07;9.35;;;;;;;;;;5031898;28;20407;-77
2021/01/05 10:47:32;;;;;;;13.80;9.00;;;;;;;;;;5013742;28;20407;-77
2021/01/05 10:49:59;;;;;;;14.82;9.55;;;;;;;;;;5013689;28;20403;-77
2021/01/05 10:52:25;;;;;;;15.45;9.68;;;;;;;;;;5025703;28;20381;-77
2021/01/05 10:54:52;;;;;;;15.20;9.88;;;;;;;;;;5013799;28;20996;-78
2021/01/05 10:57:19;;;;;;;14.48;9.88;;;;;;;;;;5013580;28;20990;-78
2021/01/05 10:59:45;;;;;;;14.85;10.02;;;;;;;;;;5029247;28;21320;-78
2021/01/05 11:02:11;;;;;;;17.02;10.50;;;;;;;;;;5019276;28;20395;-78
2021/01/05 11:04:37;;;;;;;16.60;9.75;;;;;;;;;;5029032;28;20397;-77
2021/01/05 11:07:06;;;;;;;15.32;10.75;;;;;;;;;;5030462;28;20413;-78
2021/01/05 11:09:33;;;;;;;16.77;10.82;;;;;;;;;;5011708;28;20470;-77
2021/01/05 11:12:00;;;;;;;16.38;10.48;;;;;;;;;;5011761;28;20426;-77
2021/01/05 11:14:26;;;;;;;15.07;10.82;;;;;;;;;;5011794;28;20437;-77
2021/01/05 11:16:52;;;;;;;15.68;10.55;;;;;;;;;;5029838;28;20728;-77
2021/01/05 11:19:19;;;;;;;17.38;11.15;;;;;;;;;;5030029;28;20403;-77
2021/01/05 11:21:49;;;;;;;16.95;11.40;;;;;;;;;;5029848;28;20423;-78
2021/01/05 11:24:15;;;;;;;16.15;10.60;;;;;;;;;;5011679;28;20474;-77
2021/01/05 11:26:40;;;;;;;16.15;11.10;;;;;;;;;;5012891;28;20862;-77
2021/01/05 11:29:12;;;;;;;15.85;11.00;;;;;;;;;;5012529;28;20393;-77
2021/01/05 11:31:38;;;;;;;15.65;10.27;;;;;;;;;;5028770;28;20474;-77
2021/01/05 11:34:04;;;;;;;16.00;10.55;;;;;;;;;;5011983;28;21947;-77
2021/01/05 11:36:30;;;;;;;15.38;10.10;;;;;;;;;;5012396;28;20478;-77
2021/01/05 11:38:57;;;;;;;15.67;10.33;;;;;;;;;;5012822;28;20407;-77
2021/01/05 11:41:24;;;;;;;15.43;10.75;;;;;;;;;;5030693;28;20405;-77
2021/01/05 11:43:50;;;;;;;15.68;10.73;;;;;;;;;;5030120;28;20422;-78
2021/01/05 11:46:16;;;;;;;15.73;10.73;;;;;;;;;;5030345;28;20426;-77
2021/01/05 11:48:42;;;;;;;16.73;10.55;;;;;;;;;;5012445;28;20489;-77
2021/01/05 11:51:08;;;;;;;15.53;10.07;;;;;;;;;;5012897;28;20483;-77
2021/01/05 11:53:34;;;;;;;14.50;10.13;;;;;;;;;;5012042;28;20383;-77
2021/01/05 11:56:00;;;;;;;14.25;9.48;;;;;;;;;;5030239;28;20514;-77
2021/01/05 11:58:26;;;;;;;14.27;8.88;;;;;;;;;;5019633;28;20387;-77
2021/01/05 12:00:52;;;;;;;16.05;9.40;;;;;;;;;;5028132;28;20494;-77
2021/01/05 12:03:18;;;;;;;13.07;8.97;;;;;;;;;;5030121;28;20470;-77
2021/01/05 12:05:46;;;;;;;14.10;9.05;;;;;;;;;;5012353;28;20426;-78
2021/01/05 12:08:12;;;;;;;15.65;9.52;;;;;;;;;;5027852;28;20458;-77
2021/01/05 12:10:38;;;;;;;14.18;9.13;;;;;;;;;;5010773;28;20403;-77
2021/01/05 12:13:04;;;;;;;14.32;8.88;;;;;;;;;;5029201;28;21309;-78
2021/01/05 12:15:30;;;;;;;12.37;8.30;;;;;;;;;;5030697;28;20874;-77
2021/01/05 12:17:56;;;;;;;12.13;8.40;;;;;;;;;;5013507;28;20964;-78
2021/01/05 12:20:25;;;;;;;12.93;8.52;;;;;;;;;;5013037;28;20411;-77
2021/01/05 12:22:51;;;;;;;12.95;8.98;;;;;;;;;;5028131;28;20406;-78
2021/01/05 12:25:17;;;;;;;13.85;8.43;;;;;;;;;;5032038;28;20387;-78
2021/01/05 12:27:43;;;;;;;13.55;9.20;;;;;;;;;;5012578;28;20758;-78
2021/01/05 12:30:09;;;;;;;14.15;9.70;;;;;;;;;;5010963;28;20399;-77
2021/01/05 12:32:35;;;;;;;13.90;8.95;;;;;;;;;;5012427;28;20750;-78
2021/01/05 12:35:01;;;;;;;15.20;9.88;;;;;;;;;;5030307;28;20395;-78
2021/01/05 12:37:28;;;;;;;14.85;9.90;;;;;;;;;;5011564;28;20446;-77
2021/01/05 12:39:54;;;;;;;13.48;9.88;;;;;;;;;;5028778;28;20415;-78
2021/01/05 12:42:21;;;;;;;14.15;9.82;;;;;;;;;;5028793;28;20958;-78
2021/01/05 12:44:47;;;;;;;14.30;9.77;;;;;;;;;;5012010;28;20410;-78
2021/01/05 12:47:13;;;;;;;15.18;10.77;;;;;;;;;;5028595;28;20418;-78
2021/01/05 12:49:39;;;;;;;15.55;10.18;;;;;;;;;;5013863;28;20402;-78
2021/01/05 12:52:08;;;;;;;15.25;10.25;;;;;;;;;;5026472;28;20402;-78
2021/01/05 12:54:34;;;;;;;14.40;9.32;;;;;;;;;;5028396;28;20417;-78
2021/01/05 12:57:01;;;;;;;14.70;9.82;;;;;;;;;;5030017;28;20410;-78
2021/01/05 12:59:27;;;;;;;16.60;10.70;;;;;;;;;;5011814;28;20426;-78
2021/01/05 13:01:54;;;;;;;15.32;10.40;;;;;;;;;;5029388;28;20414;-78
2021/01/05 13:04:20;;;;;;;16.05;10.18;;;;;;;;;;5016752;28;20438;-78
2021/01/05 13:06:46;;;;;;;18.35;11.32;;;;;;;;;;5015977;28;20799;-77
2021/01/05 13:09:13;;;;;;;18.52;11.65;;;;;;;;;;5017053;28;20470;-77
2021/01/05 13:11:42;;;;;;;15.82;11.07;;;;;;;;;;5029791;28;20406;-77
2021/01/05 13:14:08;;;;;;;16.98;11.40;;;;;;;;;;5015896;28;20474;-78
2021/01/05 13:16:34;;;;;;;16.80;12.23;;;;;;;;;;5033920;28;20811;-78
2021/01/05 13:19:02;;;;;;;17.73;11.70;;;;;;;;;;5011621;28;20426;-78
2021/01/05 13:21:46;;;;;;;18.20;12.15;;;;;;;;;;5021797;28;20840;-78
2021/01/05 13:24:17;;;;;;;18.45;12.27;;;;;;;;;;5015227;28;20998;-78
2021/01/05 13:26:44;;;;;;;18.17;11.90;;;;;;;;;;5033604;28;20584;-77
2021/01/05 13:29:10;;;;;;;20.17;12.35;;;;;;;;;;5035206;28;20984;-78
2021/01/05 13:31:39;;;;;;;19.63;12.57;;;;;;;;;;5032873;28;20867;-78
2021/01/05 13:34:25;;;;;;;19.40;12.07;;;;;;;;;;5036658;28;20391;-78
2021/01/05 13:36:51;;;;;;;19.57;12.63;;;;;;;;;;5037249;28;20504;-78
2021/01/05 13:39:18;;;;;;;19.90;12.63;;;;;;;;;;5021441;28;20515;-78
2021/01/05 13:41:44;;;;;;;18.67;12.53;;;;;;;;;;5015598;28;20406;-78
2021/01/05 13:44:10;;;;;;;19.48;12.68;;;;;;;;;;5034724;28;20404;-78
2021/01/05 13:46:49;;;;;;;19.30;11.98;;;;;;;;;;5027501;28;20478;-78
2021/01/05 13:49:18;;;;;;;18.88;12.32;;;;;;;;;;5027065;28;20400;-78
2021/01/05 13:51:45;;;;;;;19.33;11.90;;;;;;;;;;5013323;28;20396;-79
2021/01/05 13:54:16;;;;;;;17.38;11.48;;;;;;;;;;5032345;28;21050;-78
2021/01/05 13:56:41;;;;;;;19.88;12.40;;;;;;;;;;5033087;28;20809;-78
2021/01/05 13:59:16;;;;;;;16.92;11.52;;;;;;;;;;5033075;28;20391;-78
2021/01/05 14:01:42;;;;;;;17.73;11.63;;;;;;;;;;5024361;28;20518;-78
2021/01/05 14:04:08;;;;;;;17.73;11.18;;;;;;;;;;5032696;28;20399;-78
2021/01/05 14:06:34;;;;;;;17.38;11.95;;;;;;;;;;5032902;28;20482;-78
2021/01/05 14:09:01;;;;;;;17.25;11.23;;;;;;;;;;5028936;28;20391;-78
2021/01/05 14:11:33;;;;;;;16.98;10.68;;;;;;;;;;5033085;28;21050;-78
2021/01/05 14:13:59;;;;;;;17.00;11.00;;;;;;;;;;5013991;28;20391;-78
2021/01/05 14:16:25;;;;;;;20.67;12.10;;;;;;;;;;5033113;28;20441;-78
2021/01/05 14:18:52;;;;;;;18.33;12.10;;;;;;;;;;5032815;28;20391;-78
2021/01/05 14:21:24;;;;;;;16.63;11.52;;;;;;;;;;5015077;28;20383;-78
2021/01/05 14:24:28;;;;;;;19.52;12.98;;;;;;;;;;5007842;28;20734;-79
2021/01/05 14:26:59;;;;;;;22.83;13.95;;;;;;;;;;4952043;29;20558;-78
2021/01/05 14:29:25;;;;;;;22.35;13.93;;;;;;;;;;4945538;28;20979;-78
2021/01/05 14:31:53;;;;;;;22.13;14.05;;;;;;;;;;4999426;28;20412;-78
2021/01/05 14:34:22;;;;;;;23.95;14.43;;;;;;;;;;5032730;28;20403;-79